sensor_id;sensor_type;location;lat;lon;timestamp;P1;durP1;ratioP1;P2;durP2;ratioP2
78072;SDS011;67281;48.770;11.440;2023-06-10T00:01:43;5.90;;;5.33;;
78072;SDS011;67281;48.770;11.440;2023-06-10T00:04:14;5.37;;;4.87;;
78072;SDS011;67281;48.770;11.440;2023-06-10T00:06:43;5.23;;;4.73;;
78072;SDS011;67281;48.770;11.440;2023-06-10T00:09:10;5.17;;;4.67;;
78072;SDS011;67281;48.770;11.440;2023-06-10T00:11:37;4.97;;;4.47;;
78072;SDS011;67281;48.770;11.440;2023-06-10T00:14:04;6.13;;;5.17;;
78072;SDS011;67281;48.770;11.440;2023-06-10T00:16:31;5.60;;;5.00;;
78072;SDS011;67281;48.770;11.440;2023-06-10T00:19:02;5.47;;;4.90;;
78072;SDS011;67281;48.770;11.440;2023-06-10T00:21:31;6.70;;;4.87;;
78072;SDS011;67281;48.770;11.440;2023-06-10T00:24:04;5.27;;;4.70;;
78072;SDS011;67281;48.770;11.440;2023-06-10T00:26:36;5.60;;;5.10;;
78072;SDS011;67281;48.770;11.440;2023-06-10T00:29:03;5.27;;;4.77;;
78072;SDS011;67281;48.770;11.440;2023-06-10T00:31:29;5.00;;;4.60;;
78072;SDS011;67281;48.770;11.440;2023-06-10T00:33:56;5.30;;;4.80;;
78072;SDS011;67281;48.770;11.440;2023-06-10T00:36:25;5.27;;;4.77;;
78072;SDS011;67281;48.770;11.440;2023-06-10T00:38:52;6.40;;;4.73;;
78072;SDS011;67281;48.770;11.440;2023-06-10T00:41:19;5.87;;;4.63;;
78072;SDS011;67281;48.770;11.440;2023-06-10T00:43:46;6.10;;;5.00;;
78072;SDS011;67281;48.770;11.440;2023-06-10T00:46:12;5.50;;;4.70;;
78072;SDS011;67281;48.770;11.440;2023-06-10T00:48:40;5.47;;;4.73;;
78072;SDS011;67281;48.770;11.440;2023-06-10T00:51:08;6.30;;;4.90;;
78072;SDS011;67281;48.770;11.440;2023-06-10T00:53:41;4.63;;;4.23;;
78072;SDS011;67281;48.770;11.440;2023-06-10T00:56:08;5.17;;;4.67;;
78072;SDS011;67281;48.770;11.440;2023-06-10T00:58:36;5.30;;;4.80;;
78072;SDS011;67281;48.770;11.440;2023-06-10T01:01:03;4.93;;;4.53;;
78072;SDS011;67281;48.770;11.440;2023-06-10T01:03:33;6.33;;;4.30;;
78072;SDS011;67281;48.770;11.440;2023-06-10T01:06:09;5.77;;;5.17;;
78072;SDS011;67281;48.770;11.440;2023-06-10T01:09:00;5.13;;;4.63;;
78072;SDS011;67281;48.770;11.440;2023-06-10T01:12:10;5.27;;;4.77;;
78072;SDS011;67281;48.770;11.440;2023-06-10T01:14:36;5.53;;;5.03;;
78072;SDS011;67281;48.770;11.440;2023-06-10T01:17:06;4.73;;;4.33;;
78072;SDS011;67281;48.770;11.440;2023-06-10T01:19:35;5.93;;;5.33;;
78072;SDS011;67281;48.770;11.440;2023-06-10T01:22:03;5.37;;;4.77;;
78072;SDS011;67281;48.770;11.440;2023-06-10T01:24:31;5.77;;;4.50;;
78072;SDS011;67281;48.770;11.440;2023-06-10T01:27:01;5.47;;;4.50;;
78072;SDS011;67281;48.770;11.440;2023-06-10T01:29:36;5.00;;;4.53;;
78072;SDS011;67281;48.770;11.440;2023-06-10T01:32:23;5.73;;;5.03;;
78072;SDS011;67281;48.770;11.440;2023-06-10T01:34:55;4.93;;;4.43;;
78072;SDS011;67281;48.770;11.440;2023-06-10T01:37:23;5.30;;;4.80;;
78072;SDS011;67281;48.770;11.440;2023-06-10T01:39:55;5.63;;;5.00;;
78072;SDS011;67281;48.770;11.440;2023-06-10T01:42:25;4.33;;;3.93;;
78072;SDS011;67281;48.770;11.440;2023-06-10T01:44:52;5.33;;;4.83;;
78072;SDS011;67281;48.770;11.440;2023-06-10T01:47:19;5.27;;;4.40;;
78072;SDS011;67281;48.770;11.440;2023-06-10T01:49:47;5.20;;;4.70;;
78072;SDS011;67281;48.770;11.440;2023-06-10T01:52:14;4.77;;;4.33;;
78072;SDS011;67281;48.770;11.440;2023-06-10T01:54:41;4.53;;;4.10;;
78072;SDS011;67281;48.770;11.440;2023-06-10T01:57:08;5.97;;;5.00;;
78072;SDS011;67281;48.770;11.440;2023-06-10T01:59:35;4.90;;;4.30;;
78072;SDS011;67281;48.770;11.440;2023-06-10T02:02:03;4.70;;;4.30;;
78072;SDS011;67281;48.770;11.440;2023-06-10T02:04:30;7.23;;;4.57;;
78072;SDS011;67281;48.770;11.440;2023-06-10T02:06:57;5.37;;;4.87;;
78072;SDS011;67281;48.770;11.440;2023-06-10T02:09:24;5.83;;;4.70;;
78072;SDS011;67281;48.770;11.440;2023-06-10T02:11:51;4.93;;;4.53;;
78072;SDS011;67281;48.770;11.440;2023-06-10T02:14:18;5.53;;;5.00;;
78072;SDS011;67281;48.770;11.440;2023-06-10T02:16:45;5.77;;;4.57;;
78072;SDS011;67281;48.770;11.440;2023-06-10T02:19:13;5.17;;;4.43;;
78072;SDS011;67281;48.770;11.440;2023-06-10T02:21:40;8.17;;;4.30;;
78072;SDS011;67281;48.770;11.440;2023-06-10T02:24:07;5.07;;;4.60;;
78072;SDS011;67281;48.770;11.440;2023-06-10T02:26:34;5.30;;;4.60;;
78072;SDS011;67281;48.770;11.440;2023-06-10T02:29:01;5.67;;;4.60;;
78072;SDS011;67281;48.770;11.440;2023-06-10T02:31:28;5.30;;;4.80;;
78072;SDS011;67281;48.770;11.440;2023-06-10T02:33:55;5.77;;;4.30;;
78072;SDS011;67281;48.770;11.440;2023-06-10T02:36:22;5.67;;;5.17;;
78072;SDS011;67281;48.770;11.440;2023-06-10T02:38:50;6.03;;;5.43;;
78072;SDS011;67281;48.770;11.440;2023-06-10T02:41:17;5.27;;;4.77;;
78072;SDS011;67281;48.770;11.440;2023-06-10T02:43:44;4.80;;;4.30;;
78072;SDS011;67281;48.770;11.440;2023-06-10T02:46:10;5.30;;;4.80;;
78072;SDS011;67281;48.770;11.440;2023-06-10T02:48:41;5.67;;;4.93;;
78072;SDS011;67281;48.770;11.440;2023-06-10T02:51:10;5.30;;;4.80;;
78072;SDS011;67281;48.770;11.440;2023-06-10T02:53:37;7.10;;;4.90;;
78072;SDS011;67281;48.770;11.440;2023-06-10T02:56:04;5.93;;;4.50;;
78072;SDS011;67281;48.770;11.440;2023-06-10T02:58:31;5.17;;;4.67;;
78072;SDS011;67281;48.770;11.440;2023-06-10T03:00:58;5.60;;;4.87;;
78072;SDS011;67281;48.770;11.440;2023-06-10T03:03:24;5.90;;;5.30;;
78072;SDS011;67281;48.770;11.440;2023-06-10T03:05:52;5.77;;;4.87;;
78072;SDS011;67281;48.770;11.440;2023-06-10T03:08:19;5.17;;;4.77;;
78072;SDS011;67281;48.770;11.440;2023-06-10T03:10:46;5.53;;;5.03;;
78072;SDS011;67281;48.770;11.440;2023-06-10T03:13:12;5.43;;;4.93;;
78072;SDS011;67281;48.770;11.440;2023-06-10T03:15:40;5.17;;;4.27;;
78072;SDS011;67281;48.770;11.440;2023-06-10T03:18:07;5.30;;;4.80;;
78072;SDS011;67281;48.770;11.440;2023-06-10T03:20:34;5.07;;;4.57;;
78072;SDS011;67281;48.770;11.440;2023-06-10T03:23:06;5.03;;;4.53;;
78072;SDS011;67281;48.770;11.440;2023-06-10T03:25:33;5.00;;;4.47;;
78072;SDS011;67281;48.770;11.440;2023-06-10T03:27:59;5.43;;;4.93;;
78072;SDS011;67281;48.770;11.440;2023-06-10T03:30:27;5.87;;;5.23;;
78072;SDS011;67281;48.770;11.440;2023-06-10T03:32:54;6.00;;;4.37;;
78072;SDS011;67281;48.770;11.440;2023-06-10T03:35:21;5.50;;;4.97;;
78072;SDS011;67281;48.770;11.440;2023-06-10T03:37:48;5.40;;;4.80;;
78072;SDS011;67281;48.770;11.440;2023-06-10T03:40:15;5.93;;;5.33;;
78072;SDS011;67281;48.770;11.440;2023-06-10T03:42:42;5.37;;;4.87;;
78072;SDS011;67281;48.770;11.440;2023-06-10T03:45:10;6.07;;;4.90;;
78072;SDS011;67281;48.770;11.440;2023-06-10T03:47:38;5.90;;;5.30;;
78072;SDS011;67281;48.770;11.440;2023-06-10T03:50:07;6.63;;;5.23;;
78072;SDS011;67281;48.770;11.440;2023-06-10T03:52:35;5.13;;;4.63;;
78072;SDS011;67281;48.770;11.440;2023-06-10T03:55:02;5.33;;;4.83;;
78072;SDS011;67281;48.770;11.440;2023-06-10T03:57:30;5.30;;;4.80;;
78072;SDS011;67281;48.770;11.440;2023-06-10T03:59:57;5.03;;;4.37;;
78072;SDS011;67281;48.770;11.440;2023-06-10T04:02:24;5.30;;;4.80;;
78072;SDS011;67281;48.770;11.440;2023-06-10T04:04:51;6.63;;;4.33;;
78072;SDS011;67281;48.770;11.440;2023-06-10T04:07:18;5.70;;;5.20;;
78072;SDS011;67281;48.770;11.440;2023-06-10T04:09:47;5.97;;;4.67;;
78072;SDS011;67281;48.770;11.440;2023-06-10T04:12:14;6.63;;;5.27;;
78072;SDS011;67281;48.770;11.440;2023-06-10T04:14:42;5.23;;;4.73;;
78072;SDS011;67281;48.770;11.440;2023-06-10T04:17:09;5.50;;;5.00;;
78072;SDS011;67281;48.770;11.440;2023-06-10T04:19:36;5.60;;;4.97;;
78072;SDS011;67281;48.770;11.440;2023-06-10T04:22:03;6.23;;;5.20;;
78072;SDS011;67281;48.770;11.440;2023-06-10T04:24:31;5.17;;;4.67;;
78072;SDS011;67281;48.770;11.440;2023-06-10T04:26:58;5.60;;;5.10;;
78072;SDS011;67281;48.770;11.440;2023-06-10T04:29:25;5.80;;;4.90;;
78072;SDS011;67281;48.770;11.440;2023-06-10T04:31:52;5.00;;;4.50;;
78072;SDS011;67281;48.770;11.440;2023-06-10T04:34:19;5.30;;;4.80;;
78072;SDS011;67281;48.770;11.440;2023-06-10T04:36:46;5.43;;;4.90;;
78072;SDS011;67281;48.770;11.440;2023-06-10T04:39:13;6.27;;;4.70;;
78072;SDS011;67281;48.770;11.440;2023-06-10T04:41:40;5.27;;;4.77;;
78072;SDS011;67281;48.770;11.440;2023-06-10T04:44:07;6.27;;;4.80;;
78072;SDS011;67281;48.770;11.440;2023-06-10T04:46:34;5.33;;;4.73;;
78072;SDS011;67281;48.770;11.440;2023-06-10T04:49:01;5.20;;;4.70;;
78072;SDS011;67281;48.770;11.440;2023-06-10T04:51:28;5.33;;;4.83;;
78072;SDS011;67281;48.770;11.440;2023-06-10T04:53:54;5.77;;;5.17;;
78072;SDS011;67281;48.770;11.440;2023-06-10T04:56:21;5.40;;;4.90;;
78072;SDS011;67281;48.770;11.440;2023-06-10T04:58:48;6.80;;;4.83;;
78072;SDS011;67281;48.770;11.440;2023-06-10T05:01:15;6.33;;;5.67;;
78072;SDS011;67281;48.770;11.440;2023-06-10T05:03:42;6.83;;;5.90;;
78072;SDS011;67281;48.770;11.440;2023-06-10T05:06:09;5.47;;;4.97;;
78072;SDS011;67281;48.770;11.440;2023-06-10T05:08:36;5.50;;;4.87;;
78072;SDS011;67281;48.770;11.440;2023-06-10T05:11:06;6.50;;;5.43;;
78072;SDS011;67281;48.770;11.440;2023-06-10T05:13:32;5.73;;;5.13;;
78072;SDS011;67281;48.770;11.440;2023-06-10T05:15:59;5.53;;;4.90;;
78072;SDS011;67281;48.770;11.440;2023-06-10T05:18:26;7.37;;;5.80;;
78072;SDS011;67281;48.770;11.440;2023-06-10T05:20:53;5.73;;;5.13;;
78072;SDS011;67281;48.770;11.440;2023-06-10T05:23:20;6.80;;;5.40;;
78072;SDS011;67281;48.770;11.440;2023-06-10T05:25:47;6.03;;;5.00;;
78072;SDS011;67281;48.770;11.440;2023-06-10T05:28:14;6.77;;;5.53;;
78072;SDS011;67281;48.770;11.440;2023-06-10T05:30:41;6.07;;;5.50;;
78072;SDS011;67281;48.770;11.440;2023-06-10T05:33:08;6.30;;;5.50;;
78072;SDS011;67281;48.770;11.440;2023-06-10T05:35:35;6.13;;;5.30;;
78072;SDS011;67281;48.770;11.440;2023-06-10T05:38:02;6.50;;;5.40;;
78072;SDS011;67281;48.770;11.440;2023-06-10T05:40:29;6.10;;;5.50;;
78072;SDS011;67281;48.770;11.440;2023-06-10T05:42:56;6.00;;;5.40;;
78072;SDS011;67281;48.770;11.440;2023-06-10T05:45:23;6.83;;;6.10;;
78072;SDS011;67281;48.770;11.440;2023-06-10T05:47:49;7.13;;;6.23;;
78072;SDS011;67281;48.770;11.440;2023-06-10T05:50:17;6.67;;;6.07;;
78072;SDS011;67281;48.770;11.440;2023-06-10T05:52:44;6.73;;;5.90;;
78072;SDS011;67281;48.770;11.440;2023-06-10T05:55:10;7.17;;;5.90;;
78072;SDS011;67281;48.770;11.440;2023-06-10T05:57:37;7.40;;;5.87;;
78072;SDS011;67281;48.770;11.440;2023-06-10T06:00:05;6.43;;;5.83;;
78072;SDS011;67281;48.770;11.440;2023-06-10T06:02:32;6.37;;;5.77;;
78072;SDS011;67281;48.770;11.440;2023-06-10T06:04:59;6.43;;;5.67;;
78072;SDS011;67281;48.770;11.440;2023-06-10T06:07:26;6.43;;;5.83;;
78072;SDS011;67281;48.770;11.440;2023-06-10T06:09:53;7.40;;;6.27;;
78072;SDS011;67281;48.770;11.440;2023-06-10T06:12:20;6.57;;;5.97;;
78072;SDS011;67281;48.770;11.440;2023-06-10T06:14:46;6.50;;;5.63;;
78072;SDS011;67281;48.770;11.440;2023-06-10T06:17:15;8.87;;;6.47;;
78072;SDS011;67281;48.770;11.440;2023-06-10T06:19:45;6.63;;;6.03;;
78072;SDS011;67281;48.770;11.440;2023-06-10T06:22:16;6.70;;;6.10;;
78072;SDS011;67281;48.770;11.440;2023-06-10T06:24:46;6.90;;;6.20;;
78072;SDS011;67281;48.770;11.440;2023-06-10T06:27:18;6.83;;;5.77;;
78072;SDS011;67281;48.770;11.440;2023-06-10T06:29:44;8.37;;;6.03;;
78072;SDS011;67281;48.770;11.440;2023-06-10T06:32:12;6.13;;;5.53;;
78072;SDS011;67281;48.770;11.440;2023-06-10T06:34:39;6.87;;;5.60;;
78072;SDS011;67281;48.770;11.440;2023-06-10T06:37:06;6.73;;;6.03;;
78072;SDS011;67281;48.770;11.440;2023-06-10T06:39:32;6.90;;;6.20;;
78072;SDS011;67281;48.770;11.440;2023-06-10T06:41:59;5.67;;;5.17;;
78072;SDS011;67281;48.770;11.440;2023-06-10T06:44:26;6.50;;;5.90;;
78072;SDS011;67281;48.770;11.440;2023-06-10T06:46:53;5.97;;;5.37;;
78072;SDS011;67281;48.770;11.440;2023-06-10T06:49:20;6.60;;;5.90;;
78072;SDS011;67281;48.770;11.440;2023-06-10T06:51:47;6.33;;;5.47;;
78072;SDS011;67281;48.770;11.440;2023-06-10T06:54:13;6.60;;;5.90;;
78072;SDS011;67281;48.770;11.440;2023-06-10T06:56:40;6.37;;;5.77;;
78072;SDS011;67281;48.770;11.440;2023-06-10T06:59:07;8.10;;;5.80;;
78072;SDS011;67281;48.770;11.440;2023-06-10T07:01:34;6.57;;;5.90;;
78072;SDS011;67281;48.770;11.440;2023-06-10T07:04:01;6.63;;;5.87;;
78072;SDS011;67281;48.770;11.440;2023-06-10T07:06:28;5.87;;;5.37;;
78072;SDS011;67281;48.770;11.440;2023-06-10T07:08:55;7.13;;;5.77;;
78072;SDS011;67281;48.770;11.440;2023-06-10T07:11:21;6.43;;;5.83;;
78072;SDS011;67281;48.770;11.440;2023-06-10T07:13:48;6.07;;;5.47;;
78072;SDS011;67281;48.770;11.440;2023-06-10T07:16:15;6.33;;;5.73;;
78072;SDS011;67281;48.770;11.440;2023-06-10T07:18:42;6.87;;;5.90;;
78072;SDS011;67281;48.770;11.440;2023-06-10T07:21:09;7.03;;;6.33;;
78072;SDS011;67281;48.770;11.440;2023-06-10T07:23:35;7.00;;;5.83;;
78072;SDS011;67281;48.770;11.440;2023-06-10T07:26:02;6.00;;;5.40;;
78072;SDS011;67281;48.770;11.440;2023-06-10T07:28:29;7.50;;;5.47;;
78072;SDS011;67281;48.770;11.440;2023-06-10T07:30:56;5.87;;;5.20;;
78072;SDS011;67281;48.770;11.440;2023-06-10T07:33:23;6.07;;;5.47;;
78072;SDS011;67281;48.770;11.440;2023-06-10T07:35:50;5.90;;;5.40;;
78072;SDS011;67281;48.770;11.440;2023-06-10T07:38:16;7.03;;;6.33;;
78072;SDS011;67281;48.770;11.440;2023-06-10T07:40:45;5.83;;;5.23;;
78072;SDS011;67281;48.770;11.440;2023-06-10T07:43:11;6.33;;;5.73;;
78072;SDS011;67281;48.770;11.440;2023-06-10T07:45:42;6.30;;;5.70;;
78072;SDS011;67281;48.770;11.440;2023-06-10T07:48:09;6.37;;;5.73;;
78072;SDS011;67281;48.770;11.440;2023-06-10T07:50:36;6.40;;;5.50;;
78072;SDS011;67281;48.770;11.440;2023-06-10T07:53:03;7.43;;;5.40;;
78072;SDS011;67281;48.770;11.440;2023-06-10T07:55:30;9.03;;;5.23;;
78072;SDS011;67281;48.770;11.440;2023-06-10T07:57:57;7.37;;;5.80;;
78072;SDS011;67281;48.770;11.440;2023-06-10T08:00:24;6.17;;;5.60;;
78072;SDS011;67281;48.770;11.440;2023-06-10T08:02:51;7.97;;;5.33;;
78072;SDS011;67281;48.770;11.440;2023-06-10T08:05:18;6.27;;;5.67;;
78072;SDS011;67281;48.770;11.440;2023-06-10T08:07:45;6.40;;;5.77;;
78072;SDS011;67281;48.770;11.440;2023-06-10T08:10:12;6.30;;;5.67;;
78072;SDS011;67281;48.770;11.440;2023-06-10T08:12:39;7.57;;;5.93;;
78072;SDS011;67281;48.770;11.440;2023-06-10T08:15:06;6.70;;;5.40;;
78072;SDS011;67281;48.770;11.440;2023-06-10T08:17:33;6.60;;;5.83;;
78072;SDS011;67281;48.770;11.440;2023-06-10T08:20:01;7.67;;;5.87;;
78072;SDS011;67281;48.770;11.440;2023-06-10T08:22:28;6.27;;;5.67;;
78072;SDS011;67281;48.770;11.440;2023-06-10T08:24:55;5.27;;;4.77;;
78072;SDS011;67281;48.770;11.440;2023-06-10T08:27:22;5.40;;;4.90;;
78072;SDS011;67281;48.770;11.440;2023-06-10T08:29:50;5.20;;;4.70;;
78072;SDS011;67281;48.770;11.440;2023-06-10T08:32:17;5.57;;;5.07;;
78072;SDS011;67281;48.770;11.440;2023-06-10T08:34:43;5.73;;;5.23;;
78072;SDS011;67281;48.770;11.440;2023-06-10T08:37:10;6.07;;;5.47;;
78072;SDS011;67281;48.770;11.440;2023-06-10T08:39:37;5.17;;;4.67;;
78072;SDS011;67281;48.770;11.440;2023-06-10T08:44:53;9.93;;;5.30;;
78072;SDS011;67281;48.770;11.440;2023-06-10T08:47:29;6.50;;;5.27;;
78072;SDS011;67281;48.770;11.440;2023-06-10T08:49:57;5.53;;;5.03;;
78072;SDS011;67281;48.770;11.440;2023-06-10T08:52:36;6.20;;;5.10;;
78072;SDS011;67281;48.770;11.440;2023-06-10T08:55:08;6.20;;;4.93;;
78072;SDS011;67281;48.770;11.440;2023-06-10T08:57:41;5.30;;;4.80;;
78072;SDS011;67281;48.770;11.440;2023-06-10T09:00:12;4.83;;;4.33;;
78072;SDS011;67281;48.770;11.440;2023-06-10T09:02:39;4.77;;;4.37;;
78072;SDS011;67281;48.770;11.440;2023-06-10T09:05:07;5.23;;;4.37;;
78072;SDS011;67281;48.770;11.440;2023-06-10T09:07:35;4.47;;;4.03;;
78072;SDS011;67281;48.770;11.440;2023-06-10T09:10:03;4.77;;;4.37;;
78072;SDS011;67281;48.770;11.440;2023-06-10T09:12:34;5.13;;;4.63;;
78072;SDS011;67281;48.770;11.440;2023-06-10T09:15:02;4.70;;;4.30;;
78072;SDS011;67281;48.770;11.440;2023-06-10T09:17:29;5.17;;;4.67;;
78072;SDS011;67281;48.770;11.440;2023-06-10T09:19:56;6.20;;;4.50;;
78072;SDS011;67281;48.770;11.440;2023-06-10T09:22:26;5.90;;;4.40;;
78072;SDS011;67281;48.770;11.440;2023-06-10T09:27:30;6.80;;;5.03;;
78072;SDS011;67281;48.770;11.440;2023-06-10T09:29:59;9.43;;;5.23;;
78072;SDS011;67281;48.770;11.440;2023-06-10T09:32:26;5.77;;;4.73;;
78072;SDS011;67281;48.770;11.440;2023-06-10T09:34:53;5.23;;;3.90;;
78072;SDS011;67281;48.770;11.440;2023-06-10T09:37:20;4.93;;;4.43;;
78072;SDS011;67281;48.770;11.440;2023-06-10T09:40:04;4.60;;;4.20;;
78072;SDS011;67281;48.770;11.440;2023-06-10T09:42:33;5.83;;;4.40;;
78072;SDS011;67281;48.770;11.440;2023-06-10T09:45:02;5.23;;;4.70;;
78072;SDS011;67281;48.770;11.440;2023-06-10T09:47:30;7.17;;;4.40;;
78072;SDS011;67281;48.770;11.440;2023-06-10T09:49:57;4.73;;;4.20;;
78072;SDS011;67281;48.770;11.440;2023-06-10T09:52:24;5.17;;;4.67;;
78072;SDS011;67281;48.770;11.440;2023-06-10T09:54:54;5.50;;;4.73;;
78072;SDS011;67281;48.770;11.440;2023-06-10T09:57:26;5.00;;;4.53;;
78072;SDS011;67281;48.770;11.440;2023-06-10T09:59:59;4.60;;;4.20;;
78072;SDS011;67281;48.770;11.440;2023-06-10T10:02:26;6.10;;;4.50;;
78072;SDS011;67281;48.770;11.440;2023-06-10T10:04:53;5.80;;;4.30;;
78072;SDS011;67281;48.770;11.440;2023-06-10T10:07:28;5.93;;;5.32;;
78072;SDS011;67281;48.770;11.440;2023-06-10T10:09:55;5.00;;;4.50;;
78072;SDS011;67281;48.770;11.440;2023-06-10T10:12:22;6.57;;;4.70;;
78072;SDS011;67281;48.770;11.440;2023-06-10T10:14:49;5.87;;;4.40;;
78072;SDS011;67281;48.770;11.440;2023-06-10T10:17:17;5.23;;;4.73;;
78072;SDS011;67281;48.770;11.440;2023-06-10T10:19:48;5.03;;;4.53;;
78072;SDS011;67281;48.770;11.440;2023-06-10T10:22:18;9.37;;;4.43;;
78072;SDS011;67281;48.770;11.440;2023-06-10T10:24:49;5.57;;;4.53;;
78072;SDS011;67281;48.770;11.440;2023-06-10T10:27:20;8.10;;;5.03;;
78072;SDS011;67281;48.770;11.440;2023-06-10T10:29:53;4.87;;;4.47;;
78072;SDS011;67281;48.770;11.440;2023-06-10T10:32:23;4.37;;;4.07;;
78072;SDS011;67281;48.770;11.440;2023-06-10T10:37:35;5.20;;;4.70;;
78072;SDS011;67281;48.770;11.440;2023-06-10T10:40:03;5.03;;;4.63;;
78072;SDS011;67281;48.770;11.440;2023-06-10T10:42:30;5.00;;;4.60;;
78072;SDS011;67281;48.770;11.440;2023-06-10T10:44:58;5.03;;;4.60;;
78072;SDS011;67281;48.770;11.440;2023-06-10T10:47:27;5.20;;;4.78;;
78072;SDS011;67281;48.770;11.440;2023-06-10T10:49:57;7.00;;;4.50;;
78072;SDS011;67281;48.770;11.440;2023-06-10T10:52:28;6.50;;;5.00;;
78072;SDS011;67281;48.770;11.440;2023-06-10T10:55:14;5.30;;;4.80;;
78072;SDS011;67281;48.770;11.440;2023-06-10T10:57:41;4.90;;;4.40;;
78072;SDS011;67281;48.770;11.440;2023-06-10T11:00:08;4.73;;;4.23;;
78072;SDS011;67281;48.770;11.440;2023-06-10T11:02:37;4.87;;;4.40;;
78072;SDS011;67281;48.770;11.440;2023-06-10T11:05:07;7.10;;;4.40;;
78072;SDS011;67281;48.770;11.440;2023-06-10T11:07:35;4.70;;;4.30;;
78072;SDS011;67281;48.770;11.440;2023-06-10T11:10:06;5.33;;;4.80;;
78072;SDS011;67281;48.770;11.440;2023-06-10T11:15:11;7.47;;;4.50;;
78072;SDS011;67281;48.770;11.440;2023-06-10T11:18:13;6.43;;;4.27;;
78072;SDS011;67281;48.770;11.440;2023-06-10T11:28:42;8.17;;;4.90;;
78072;SDS011;67281;48.770;11.440;2023-06-10T11:31:32;4.70;;;4.30;;
78072;SDS011;67281;48.770;11.440;2023-06-10T11:34:06;5.72;;;4.45;;
78072;SDS011;67281;48.770;11.440;2023-06-10T11:36:36;5.10;;;4.60;;
78072;SDS011;67281;48.770;11.440;2023-06-10T11:39:09;5.25;;;4.75;;
78072;SDS011;67281;48.770;11.440;2023-06-10T11:41:37;4.95;;;4.47;;
78072;SDS011;67281;48.770;11.440;2023-06-10T11:46:38;5.73;;;4.53;;
78072;SDS011;67281;48.770;11.440;2023-06-10T11:49:06;4.60;;;4.20;;
78072;SDS011;67281;48.770;11.440;2023-06-10T11:51:34;5.25;;;4.47;;
78072;SDS011;67281;48.770;11.440;2023-06-10T11:54:03;5.77;;;4.37;;
78072;SDS011;67281;48.770;11.440;2023-06-10T11:56:30;5.25;;;4.75;;
78072;SDS011;67281;48.770;11.440;2023-06-10T11:58:59;4.90;;;4.45;;
78072;SDS011;67281;48.770;11.440;2023-06-10T12:01:33;5.30;;;4.47;;
78072;SDS011;67281;48.770;11.440;2023-06-10T12:04:06;4.60;;;3.83;;
78072;SDS011;67281;48.770;11.440;2023-06-10T12:06:53;4.80;;;4.23;;
78072;SDS011;67281;48.770;11.440;2023-06-10T12:11:58;4.50;;;4.10;;
78072;SDS011;67281;48.770;11.440;2023-06-10T12:17:22;5.13;;;4.57;;
78072;SDS011;67281;48.770;11.440;2023-06-10T12:19:59;5.78;;;3.97;;
78072;SDS011;67281;48.770;11.440;2023-06-10T12:22:35;4.63;;;4.22;;
78072;SDS011;67281;48.770;11.440;2023-06-10T12:25:03;4.50;;;4.10;;
78072;SDS011;67281;48.770;11.440;2023-06-10T12:27:34;5.10;;;4.13;;
78072;SDS011;67281;48.770;11.440;2023-06-10T12:30:02;4.47;;;4.07;;
78072;SDS011;67281;48.770;11.440;2023-06-10T12:32:49;4.53;;;4.13;;
78072;SDS011;67281;48.770;11.440;2023-06-10T12:35:17;4.30;;;3.90;;
78072;SDS011;67281;48.770;11.440;2023-06-10T12:38:02;4.97;;;3.70;;
78072;SDS011;67281;48.770;11.440;2023-06-10T12:40:33;4.13;;;3.72;;
78072;SDS011;67281;48.770;11.440;2023-06-10T12:43:03;4.20;;;3.80;;
78072;SDS011;67281;48.770;11.440;2023-06-10T12:45:31;6.05;;;3.60;;
78072;SDS011;67281;48.770;11.440;2023-06-10T12:48:10;4.13;;;3.72;;
78072;SDS011;67281;48.770;11.440;2023-06-10T12:50:40;4.22;;;3.83;;
78072;SDS011;67281;48.770;11.440;2023-06-10T12:53:09;3.92;;;3.55;;
78072;SDS011;67281;48.770;11.440;2023-06-10T12:55:37;4.77;;;4.17;;
78072;SDS011;67281;48.770;11.440;2023-06-10T12:58:05;4.80;;;3.60;;
78072;SDS011;67281;48.770;11.440;2023-06-10T13:00:31;4.15;;;3.75;;
78072;SDS011;67281;48.770;11.440;2023-06-10T13:03:01;6.13;;;4.60;;
78072;SDS011;67281;48.770;11.440;2023-06-10T13:05:29;4.80;;;3.97;;
78072;SDS011;67281;48.770;11.440;2023-06-10T13:07:56;3.90;;;3.58;;
78072;SDS011;67281;48.770;11.440;2023-06-10T13:10:24;5.35;;;3.92;;
78072;SDS011;67281;48.770;11.440;2023-06-10T13:12:52;4.70;;;3.40;;
78072;SDS011;67281;48.770;11.440;2023-06-10T13:15:19;4.50;;;3.50;;
78072;SDS011;67281;48.770;11.440;2023-06-10T13:17:46;4.25;;;3.67;;
78072;SDS011;67281;48.770;11.440;2023-06-10T13:20:16;4.20;;;3.80;;
78072;SDS011;67281;48.770;11.440;2023-06-10T13:22:44;4.03;;;3.63;;
78072;SDS011;67281;48.770;11.440;2023-06-10T13:25:11;3.50;;;3.20;;
78072;SDS011;67281;48.770;11.440;2023-06-10T13:27:39;3.50;;;3.20;;
78072;SDS011;67281;48.770;11.440;2023-06-10T13:30:06;3.75;;;3.45;;
78072;SDS011;67281;48.770;11.440;2023-06-10T13:32:35;4.85;;;3.53;;
78072;SDS011;67281;48.770;11.440;2023-06-10T13:35:02;5.35;;;3.80;;
78072;SDS011;67281;48.770;11.440;2023-06-10T13:37:30;3.72;;;3.33;;
78072;SDS011;67281;48.770;11.440;2023-06-10T13:39:57;3.72;;;3.42;;
78072;SDS011;67281;48.770;11.440;2023-06-10T13:42:24;4.03;;;3.55;;
78072;SDS011;67281;48.770;11.440;2023-06-10T13:44:52;3.97;;;3.65;;
78072;SDS011;67281;48.770;11.440;2023-06-10T13:47:19;4.00;;;3.60;;
78072;SDS011;67281;48.770;11.440;2023-06-10T13:49:47;4.10;;;3.70;;
78072;SDS011;67281;48.770;11.440;2023-06-10T13:52:14;4.25;;;3.85;;
78072;SDS011;67281;48.770;11.440;2023-06-10T13:54:41;5.50;;;3.70;;
78072;SDS011;67281;48.770;11.440;2023-06-10T13:57:07;4.40;;;4.00;;
78072;SDS011;67281;48.770;11.440;2023-06-10T13:59:36;4.40;;;4.00;;
78072;SDS011;67281;48.770;11.440;2023-06-10T14:02:03;4.45;;;4.05;;
78072;SDS011;67281;48.770;11.440;2023-06-10T14:04:31;4.22;;;3.83;;
78072;SDS011;67281;48.770;11.440;2023-06-10T14:06:58;4.68;;;4.28;;
78072;SDS011;67281;48.770;11.440;2023-06-10T14:09:25;3.67;;;3.38;;
78072;SDS011;67281;48.770;11.440;2023-06-10T14:11:52;4.30;;;3.90;;
78072;SDS011;67281;48.770;11.440;2023-06-10T14:14:19;4.55;;;4.10;;
78072;SDS011;67281;48.770;11.440;2023-06-10T14:16:46;4.60;;;4.05;;
78072;SDS011;67281;48.770;11.440;2023-06-10T14:19:13;4.20;;;3.80;;
78072;SDS011;67281;48.770;11.440;2023-06-10T14:21:40;5.25;;;4.40;;
78072;SDS011;67281;48.770;11.440;2023-06-10T14:24:07;3.85;;;3.50;;
78072;SDS011;67281;48.770;11.440;2023-06-10T14:26:34;6.68;;;4.13;;
78072;SDS011;67281;48.770;11.440;2023-06-10T14:29:01;4.68;;;3.88;;
78072;SDS011;67281;48.770;11.440;2023-06-10T14:31:29;3.70;;;3.40;;
78072;SDS011;67281;48.770;11.440;2023-06-10T14:33:56;4.10;;;3.80;;
78072;SDS011;67281;48.770;11.440;2023-06-10T14:36:22;5.80;;;3.97;;
78072;SDS011;67281;48.770;11.440;2023-06-10T14:38:49;4.93;;;4.43;;
78072;SDS011;67281;48.770;11.440;2023-06-10T14:41:17;4.55;;;4.15;;
78072;SDS011;67281;48.770;11.440;2023-06-10T14:43:44;4.65;;;4.25;;
78072;SDS011;67281;48.770;11.440;2023-06-10T14:46:11;5.05;;;4.30;;
78072;SDS011;67281;48.770;11.440;2023-06-10T14:48:38;4.55;;;4.15;;
78072;SDS011;67281;48.770;11.440;2023-06-10T14:51:04;6.30;;;4.20;;
78072;SDS011;67281;48.770;11.440;2023-06-10T14:53:31;4.35;;;3.95;;
78072;SDS011;67281;48.770;11.440;2023-06-10T14:55:58;4.72;;;4.22;;
78072;SDS011;67281;48.770;11.440;2023-06-10T14:58:25;4.53;;;4.13;;
78072;SDS011;67281;48.770;11.440;2023-06-10T15:00:52;4.53;;;4.03;;
78072;SDS011;67281;48.770;11.440;2023-06-10T15:03:19;4.18;;;3.85;;
78072;SDS011;67281;48.770;11.440;2023-06-10T15:05:46;5.82;;;4.25;;
78072;SDS011;67281;48.770;11.440;2023-06-10T15:08:13;5.05;;;4.65;;